North Central West Virginia Airport
KCKB : now visible

Aeroporto :











RITROVATECI SU...

 
LOGIN :

Iscrizione | Disclaimer

   EN    FR    IT 

 









Sommario :    VFR   VFR Marginale   IFR   IFR Intensivo   IFR Molto Intensivo
Visibilità : 
Base nubi : 
>= 8 km
>= 3000ft
5 / 8 km
1000 / 3000 ft
1500m / 5 km
500 / 1000 ft
800 / 1500m
200 / 500 ft
< 800m
< 200 ft
Simboli :   Temporali  Nebbia  Neve Forte  Precipitazioni Forti  Vento > 20 kt






- Altitudine del aeroporto : 1217 ft
- Codice IATA : CKB


KCKB - North Central West Virginia

ULTIMO METAR :
  • 040153Z 10SM CLR 13/M08 A2998 RMK AO2 SLP148 T01281078 $

METARs OBSOLETI :
  • 040053Z 10SM CLR 13/M08 A2997 RMK AO2 SLP145 T01331078 $
  • 032353Z 10SM CLR 15/M08 A2995 RMK AO2 SLP141 T01501083 10189 20150 53009 $

TAF KCKB
Valido dal 04 a 00 ore il 05 a 00 ore UTC


032330Z 0400/0424 33009KT P6SM SKC
FM040600 VRB03KT P6SM SKC
FM041300 30004KT P6SM SKC
FM041700 32009G19KT P6SM SKC



MetMap, La meteo Aeronautica in un colpo d'occhio ! - Copyright ORBIFLY Dicembre 2007 - Disclaimer

ORBIFLY MET'MAP TEAM :

Programmazione e sviluppo : Alexandra Zaïnal
Concezione : Baudouin d'Aumeries
Aiuto per la programmazione : Marc-Olivier Méhu
Supporto tecnico e logistico : Manuel Goepfert
Aiuto per la traduzione : Arnaldo La Scala

Contatto : metmap@orbifly.com




FONTI E CREDITI :

   NOAA       Earth
Advisory